sensor_id;sensor_type;location;lat;lon;timestamp;P1;durP1;ratioP1;P2;durP2;ratioP2
920;SDS011;447;51.332;6.778;2023-02-28T00:01:10;6.35;;;3.45;;
920;SDS011;447;51.332;6.778;2023-02-28T00:03:41;4.03;;;3.50;;
920;SDS011;447;51.332;6.778;2023-02-28T00:06:11;3.88;;;2.97;;
920;SDS011;447;51.332;6.778;2023-02-28T00:08:38;4.30;;;3.60;;
920;SDS011;447;51.332;6.778;2023-02-28T00:11:06;6.28;;;3.90;;
920;SDS011;447;51.332;6.778;2023-02-28T00:13:40;4.72;;;3.85;;
920;SDS011;447;51.332;6.778;2023-02-28T00:16:09;4.82;;;3.42;;
920;SDS011;447;51.332;6.778;2023-02-28T00:18:38;6.75;;;3.95;;
920;SDS011;447;51.332;6.778;2023-02-28T00:21:05;4.05;;;3.65;;
920;SDS011;447;51.332;6.778;2023-02-28T00:23:36;5.82;;;3.92;;
920;SDS011;447;51.332;6.778;2023-02-28T00:26:02;4.45;;;3.13;;
920;SDS011;447;51.332;6.778;2023-02-28T00:28:28;6.53;;;3.20;;
920;SDS011;447;51.332;6.778;2023-02-28T00:30:55;4.85;;;3.63;;
920;SDS011;447;51.332;6.778;2023-02-28T00:33:22;6.18;;;4.00;;
920;SDS011;447;51.332;6.778;2023-02-28T00:35:50;5.22;;;3.25;;
920;SDS011;447;51.332;6.778;2023-02-28T00:38:16;5.63;;;3.60;;
920;SDS011;447;51.332;6.778;2023-02-28T00:40:42;4.45;;;3.70;;
920;SDS011;447;51.332;6.778;2023-02-28T00:43:10;3.58;;;3.25;;
920;SDS011;447;51.332;6.778;2023-02-28T00:45:36;5.90;;;4.03;;
920;SDS011;447;51.332;6.778;2023-02-28T00:48:07;7.85;;;3.60;;
920;SDS011;447;51.332;6.778;2023-02-28T00:50:32;5.57;;;3.37;;
920;SDS011;447;51.332;6.778;2023-02-28T00:53:01;4.55;;;4.05;;
920;SDS011;447;51.332;6.778;2023-02-28T00:55:27;5.13;;;3.50;;
920;SDS011;447;51.332;6.778;2023-02-28T00:57:53;6.70;;;3.47;;
920;SDS011;447;51.332;6.778;2023-02-28T01:00:19;4.75;;;3.92;;
920;SDS011;447;51.332;6.778;2023-02-28T01:02:48;5.00;;;3.10;;
920;SDS011;447;51.332;6.778;2023-02-28T01:05:14;3.70;;;3.20;;
920;SDS011;447;51.332;6.778;2023-02-28T01:07:40;7.20;;;3.47;;
920;SDS011;447;51.332;6.778;2023-02-28T01:10:06;4.30;;;3.50;;
920;SDS011;447;51.332;6.778;2023-02-28T01:12:35;4.00;;;3.60;;
920;SDS011;447;51.332;6.778;2023-02-28T01:15:01;3.43;;;3.13;;
920;SDS011;447;51.332;6.778;2023-02-28T01:17:30;6.93;;;4.03;;
920;SDS011;447;51.332;6.778;2023-02-28T01:19:59;5.90;;;4.07;;
920;SDS011;447;51.332;6.778;2023-02-28T01:22:30;4.95;;;3.38;;
920;SDS011;447;51.332;6.778;2023-02-28T01:25:00;5.22;;;3.03;;
920;SDS011;447;51.332;6.778;2023-02-28T01:27:31;4.82;;;4.03;;
920;SDS011;447;51.332;6.778;2023-02-28T01:29:58;3.85;;;3.47;;
920;SDS011;447;51.332;6.778;2023-02-28T01:32:27;6.55;;;3.92;;
920;SDS011;447;51.332;6.778;2023-02-28T01:34:53;5.65;;;3.70;;
920;SDS011;447;51.332;6.778;2023-02-28T01:37:19;3.25;;;2.95;;
920;SDS011;447;51.332;6.778;2023-02-28T01:39:45;5.00;;;3.50;;
920;SDS011;447;51.332;6.778;2023-02-28T01:42:14;3.75;;;3.40;;
920;SDS011;447;51.332;6.778;2023-02-28T01:47:32;4.97;;;3.70;;
920;SDS011;447;51.332;6.778;2023-02-28T01:50:04;5.07;;;3.80;;
920;SDS011;447;51.332;6.778;2023-02-28T01:52:35;5.47;;;4.03;;
920;SDS011;447;51.332;6.778;2023-02-28T01:55:04;6.15;;;3.58;;
920;SDS011;447;51.332;6.778;2023-02-28T01:57:35;8.30;;;3.40;;
920;SDS011;447;51.332;6.778;2023-02-28T02:02:46;4.95;;;3.40;;
920;SDS011;447;51.332;6.778;2023-02-28T02:05:22;5.70;;;3.53;;
920;SDS011;447;51.332;6.778;2023-02-28T02:08:10;4.57;;;3.33;;
920;SDS011;447;51.332;6.778;2023-02-28T02:10:43;6.55;;;3.58;;
920;SDS011;447;51.332;6.778;2023-02-28T02:16:12;5.43;;;3.90;;
920;SDS011;447;51.332;6.778;2023-02-28T02:18:46;3.65;;;3.20;;
920;SDS011;447;51.332;6.778;2023-02-28T02:45:42;4.20;;;3.25;;
920;SDS011;447;51.332;6.778;2023-02-28T02:48:21;6.32;;;3.60;;
920;SDS011;447;51.332;6.778;2023-02-28T02:50:59;4.63;;;3.20;;
920;SDS011;447;51.332;6.778;2023-02-28T02:53:44;4.70;;;3.55;;
920;SDS011;447;51.332;6.778;2023-02-28T02:56:21;5.30;;;2.78;;
920;SDS011;447;51.332;6.778;2023-02-28T02:58:54;6.10;;;3.30;;
920;SDS011;447;51.332;6.778;2023-02-28T03:01:26;4.90;;;2.83;;
920;SDS011;447;51.332;6.778;2023-02-28T03:04:01;5.43;;;3.63;;
920;SDS011;447;51.332;6.778;2023-02-28T03:06:35;6.03;;;2.97;;
920;SDS011;447;51.332;6.778;2023-02-28T03:09:03;3.97;;;3.10;;
920;SDS011;447;51.332;6.778;2023-02-28T03:11:32;3.22;;;2.85;;
920;SDS011;447;51.332;6.778;2023-02-28T03:22:11;3.88;;;2.75;;
920;SDS011;447;51.332;6.778;2023-02-28T03:25:23;4.13;;;2.97;;
920;SDS011;447;51.332;6.778;2023-02-28T03:28:22;4.28;;;2.75;;
920;SDS011;447;51.332;6.778;2023-02-28T03:30:58;8.00;;;3.45;;
920;SDS011;447;51.332;6.778;2023-02-28T03:34:14;3.40;;;2.80;;
920;SDS011;447;51.332;6.778;2023-02-28T03:36:46;4.22;;;3.05;;
920;SDS011;447;51.332;6.778;2023-02-28T03:41:52;4.13;;;3.40;;
920;SDS011;447;51.332;6.778;2023-02-28T03:47:14;3.10;;;2.75;;
920;SDS011;447;51.332;6.778;2023-02-28T03:50:03;4.00;;;3.10;;
920;SDS011;447;51.332;6.778;2023-02-28T03:52:35;4.03;;;2.90;;
920;SDS011;447;51.332;6.778;2023-02-28T03:55:07;4.13;;;2.67;;
920;SDS011;447;51.332;6.778;2023-02-28T04:03:03;3.65;;;3.28;;
920;SDS011;447;51.332;6.778;2023-02-28T04:05:32;4.47;;;3.05;;
920;SDS011;447;51.332;6.778;2023-02-28T04:08:05;3.72;;;3.10;;
920;SDS011;447;51.332;6.778;2023-02-28T04:10:35;3.58;;;2.63;;
920;SDS011;447;51.332;6.778;2023-02-28T04:13:01;3.95;;;2.85;;
920;SDS011;447;51.332;6.778;2023-02-28T04:15:30;3.78;;;3.30;;
920;SDS011;447;51.332;6.778;2023-02-28T04:17:58;3.38;;;2.92;;
920;SDS011;447;51.332;6.778;2023-02-28T04:20:29;3.92;;;3.20;;
920;SDS011;447;51.332;6.778;2023-02-28T04:22:55;4.20;;;2.90;;
920;SDS011;447;51.332;6.778;2023-02-28T04:25:23;3.38;;;2.80;;
920;SDS011;447;51.332;6.778;2023-02-28T04:27:49;7.18;;;3.13;;
920;SDS011;447;51.332;6.778;2023-02-28T04:30:17;4.40;;;3.55;;
920;SDS011;447;51.332;6.778;2023-02-28T04:32:43;3.40;;;3.10;;
920;SDS011;447;51.332;6.778;2023-02-28T04:35:12;4.20;;;3.38;;
920;SDS011;447;51.332;6.778;2023-02-28T04:37:41;3.83;;;2.95;;
920;SDS011;447;51.332;6.778;2023-02-28T04:40:09;3.60;;;2.60;;
920;SDS011;447;51.332;6.778;2023-02-28T04:42:38;2.92;;;2.35;;
920;SDS011;447;51.332;6.778;2023-02-28T04:45:04;3.47;;;3.17;;
920;SDS011;447;51.332;6.778;2023-02-28T04:47:35;3.92;;;2.83;;
920;SDS011;447;51.332;6.778;2023-02-28T04:50:02;3.80;;;3.03;;
920;SDS011;447;51.332;6.778;2023-02-28T04:52:31;5.07;;;3.20;;
920;SDS011;447;51.332;6.778;2023-02-28T04:55:04;4.88;;;3.25;;
920;SDS011;447;51.332;6.778;2023-02-28T04:57:33;3.10;;;2.58;;
920;SDS011;447;51.332;6.778;2023-02-28T05:00:02;3.47;;;2.92;;
920;SDS011;447;51.332;6.778;2023-02-28T05:02:34;5.38;;;2.90;;
920;SDS011;447;51.332;6.778;2023-02-28T05:05:10;2.58;;;2.38;;
920;SDS011;447;51.332;6.778;2023-02-28T05:07:41;3.17;;;2.88;;
920;SDS011;447;51.332;6.778;2023-02-28T05:10:13;6.18;;;3.67;;
920;SDS011;447;51.332;6.778;2023-02-28T05:12:41;3.90;;;2.53;;
920;SDS011;447;51.332;6.778;2023-02-28T05:15:08;3.10;;;2.80;;
920;SDS011;447;51.332;6.778;2023-02-28T05:17:39;6.05;;;2.60;;
920;SDS011;447;51.332;6.778;2023-02-28T05:20:05;3.28;;;2.55;;
920;SDS011;447;51.332;6.778;2023-02-28T05:22:42;5.28;;;3.10;;
920;SDS011;447;51.332;6.778;2023-02-28T05:25:15;3.33;;;2.92;;
920;SDS011;447;51.332;6.778;2023-02-28T05:27:44;3.63;;;3.08;;
920;SDS011;447;51.332;6.778;2023-02-28T05:30:12;4.28;;;2.78;;
920;SDS011;447;51.332;6.778;2023-02-28T05:32:39;3.63;;;2.70;;
920;SDS011;447;51.332;6.778;2023-02-28T05:35:11;3.95;;;3.15;;
920;SDS011;447;51.332;6.778;2023-02-28T05:37:38;4.15;;;2.70;;
920;SDS011;447;51.332;6.778;2023-02-28T05:40:07;2.95;;;2.70;;
920;SDS011;447;51.332;6.778;2023-02-28T05:42:36;8.63;;;2.72;;
920;SDS011;447;51.332;6.778;2023-02-28T05:45:05;3.15;;;2.67;;
920;SDS011;447;51.332;6.778;2023-02-28T05:47:33;3.55;;;2.85;;
920;SDS011;447;51.332;6.778;2023-02-28T05:50:02;4.75;;;2.90;;
920;SDS011;447;51.332;6.778;2023-02-28T05:52:31;5.90;;;2.80;;
920;SDS011;447;51.332;6.778;2023-02-28T05:54:57;3.03;;;2.40;;
920;SDS011;447;51.332;6.778;2023-02-28T05:57:23;3.78;;;3.10;;
920;SDS011;447;51.332;6.778;2023-02-28T05:59:52;3.47;;;2.80;;
920;SDS011;447;51.332;6.778;2023-02-28T06:02:18;3.05;;;2.65;;
920;SDS011;447;51.332;6.778;2023-02-28T06:04:44;4.43;;;3.10;;
920;SDS011;447;51.332;6.778;2023-02-28T06:07:10;3.53;;;2.60;;
920;SDS011;447;51.332;6.778;2023-02-28T06:09:38;3.88;;;2.97;;
920;SDS011;447;51.332;6.778;2023-02-28T06:12:06;3.42;;;2.63;;
920;SDS011;447;51.332;6.778;2023-02-28T06:14:35;3.00;;;2.67;;
920;SDS011;447;51.332;6.778;2023-02-28T06:17:04;3.70;;;3.08;;
920;SDS011;447;51.332;6.778;2023-02-28T06:19:30;3.50;;;2.40;;
920;SDS011;447;51.332;6.778;2023-02-28T06:21:56;5.87;;;3.07;;
920;SDS011;447;51.332;6.778;2023-02-28T06:24:24;5.00;;;2.90;;
920;SDS011;447;51.332;6.778;2023-02-28T06:26:53;3.33;;;3.03;;
920;SDS011;447;51.332;6.778;2023-02-28T06:29:19;5.70;;;3.13;;
920;SDS011;447;51.332;6.778;2023-02-28T06:31:45;3.58;;;2.97;;
920;SDS011;447;51.332;6.778;2023-02-28T06:34:12;3.70;;;3.00;;
920;SDS011;447;51.332;6.778;2023-02-28T06:36:39;3.33;;;2.95;;
920;SDS011;447;51.332;6.778;2023-02-28T06:39:06;4.20;;;2.45;;
920;SDS011;447;51.332;6.778;2023-02-28T06:41:36;3.20;;;2.83;;
920;SDS011;447;51.332;6.778;2023-02-28T06:44:08;4.88;;;2.40;;
920;SDS011;447;51.332;6.778;2023-02-28T06:46:43;4.40;;;2.92;;
920;SDS011;447;51.332;6.778;2023-02-28T06:49:10;4.57;;;2.80;;
920;SDS011;447;51.332;6.778;2023-02-28T06:51:41;4.20;;;2.65;;
920;SDS011;447;51.332;6.778;2023-02-28T06:54:10;3.50;;;2.50;;
920;SDS011;447;51.332;6.778;2023-02-28T06:56:37;4.45;;;3.42;;
920;SDS011;447;51.332;6.778;2023-02-28T06:59:03;3.80;;;3.10;;
920;SDS011;447;51.332;6.778;2023-02-28T07:01:30;4.50;;;3.05;;
920;SDS011;447;51.332;6.778;2023-02-28T07:03:59;3.80;;;2.85;;
920;SDS011;447;51.332;6.778;2023-02-28T07:06:26;3.55;;;2.80;;
920;SDS011;447;51.332;6.778;2023-02-28T07:08:52;3.65;;;2.60;;
920;SDS011;447;51.332;6.778;2023-02-28T07:11:19;4.38;;;3.20;;
920;SDS011;447;51.332;6.778;2023-02-28T07:13:48;6.13;;;2.97;;
920;SDS011;447;51.332;6.778;2023-02-28T07:16:16;3.90;;;3.20;;
920;SDS011;447;51.332;6.778;2023-02-28T07:18:42;3.60;;;2.60;;
920;SDS011;447;51.332;6.778;2023-02-28T07:21:10;3.65;;;2.75;;
920;SDS011;447;51.332;6.778;2023-02-28T07:23:37;3.45;;;2.65;;
920;SDS011;447;51.332;6.778;2023-02-28T07:26:04;2.90;;;2.58;;
920;SDS011;447;51.332;6.778;2023-02-28T07:28:32;3.50;;;2.63;;
920;SDS011;447;51.332;6.778;2023-02-28T07:31:02;4.70;;;3.00;;
920;SDS011;447;51.332;6.778;2023-02-28T07:33:31;3.35;;;2.50;;
920;SDS011;447;51.332;6.778;2023-02-28T07:36:08;8.02;;;2.80;;
920;SDS011;447;51.332;6.778;2023-02-28T07:38:41;3.58;;;2.75;;
920;SDS011;447;51.332;6.778;2023-02-28T07:41:09;3.60;;;3.10;;
920;SDS011;447;51.332;6.778;2023-02-28T07:43:37;2.50;;;2.30;;
920;SDS011;447;51.332;6.778;2023-02-28T07:46:07;6.82;;;2.95;;
920;SDS011;447;51.332;6.778;2023-02-28T07:48:35;4.28;;;3.00;;
920;SDS011;447;51.332;6.778;2023-02-28T07:51:01;3.20;;;2.83;;
920;SDS011;447;51.332;6.778;2023-02-28T07:53:27;2.50;;;2.17;;
920;SDS011;447;51.332;6.778;2023-02-28T07:55:54;4.07;;;2.97;;
920;SDS011;447;51.332;6.778;2023-02-28T07:58:21;3.60;;;3.00;;
920;SDS011;447;51.332;6.778;2023-02-28T08:00:48;3.15;;;2.80;;
920;SDS011;447;51.332;6.778;2023-02-28T08:03:17;3.67;;;2.95;;
920;SDS011;447;51.332;6.778;2023-02-28T08:05:44;4.32;;;2.92;;
920;SDS011;447;51.332;6.778;2023-02-28T08:08:13;4.35;;;3.42;;
920;SDS011;447;51.332;6.778;2023-02-28T08:10:41;3.50;;;2.50;;
920;SDS011;447;51.332;6.778;2023-02-28T08:13:12;3.25;;;2.85;;
920;SDS011;447;51.332;6.778;2023-02-28T08:15:40;2.83;;;2.63;;
920;SDS011;447;51.332;6.778;2023-02-28T08:18:07;3.38;;;2.72;;
920;SDS011;447;51.332;6.778;2023-02-28T08:20:36;4.50;;;2.60;;
920;SDS011;447;51.332;6.778;2023-02-28T08:23:02;3.50;;;3.00;;
920;SDS011;447;51.332;6.778;2023-02-28T08:25:30;3.38;;;2.80;;
920;SDS011;447;51.332;6.778;2023-02-28T08:27:56;3.38;;;3.08;;
920;SDS011;447;51.332;6.778;2023-02-28T08:30:22;3.50;;;2.77;;
920;SDS011;447;51.332;6.778;2023-02-28T08:32:48;4.93;;;2.60;;
920;SDS011;447;51.332;6.778;2023-02-28T08:35:14;5.22;;;2.85;;
920;SDS011;447;51.332;6.778;2023-02-28T08:37:43;3.13;;;2.83;;
920;SDS011;447;51.332;6.778;2023-02-28T08:40:09;3.10;;;2.70;;
920;SDS011;447;51.332;6.778;2023-02-28T08:42:35;3.38;;;2.63;;
920;SDS011;447;51.332;6.778;2023-02-28T08:45:01;3.72;;;2.97;;
920;SDS011;447;51.332;6.778;2023-02-28T08:47:27;3.47;;;3.10;;
920;SDS011;447;51.332;6.778;2023-02-28T08:49:53;4.03;;;3.30;;
920;SDS011;447;51.332;6.778;2023-02-28T08:52:24;5.85;;;3.10;;
920;SDS011;447;51.332;6.778;2023-02-28T08:54:50;4.77;;;2.60;;
920;SDS011;447;51.332;6.778;2023-02-28T08:57:16;4.05;;;2.95;;
920;SDS011;447;51.332;6.778;2023-02-28T08:59:44;4.68;;;2.95;;
920;SDS011;447;51.332;6.778;2023-02-28T09:02:13;4.00;;;2.95;;
920;SDS011;447;51.332;6.778;2023-02-28T09:04:40;3.38;;;3.08;;
920;SDS011;447;51.332;6.778;2023-02-28T09:07:10;3.53;;;3.20;;
920;SDS011;447;51.332;6.778;2023-02-28T09:09:37;3.42;;;2.38;;
920;SDS011;447;51.332;6.778;2023-02-28T09:12:25;4.22;;;2.92;;
920;SDS011;447;51.332;6.778;2023-02-28T09:14:55;3.25;;;2.47;;
920;SDS011;447;51.332;6.778;2023-02-28T09:17:23;4.17;;;2.70;;
920;SDS011;447;51.332;6.778;2023-02-28T09:19:49;3.58;;;2.88;;
920;SDS011;447;51.332;6.778;2023-02-28T09:22:15;3.37;;;2.90;;
920;SDS011;447;51.332;6.778;2023-02-28T09:24:41;3.55;;;2.88;;
920;SDS011;447;51.332;6.778;2023-02-28T09:27:07;3.17;;;2.60;;
920;SDS011;447;51.332;6.778;2023-02-28T09:29:36;3.42;;;2.70;;
920;SDS011;447;51.332;6.778;2023-02-28T09:32:02;3.20;;;2.70;;
920;SDS011;447;51.332;6.778;2023-02-28T09:34:31;3.50;;;3.20;;
920;SDS011;447;51.332;6.778;2023-02-28T09:36:57;2.78;;;2.45;;
920;SDS011;447;51.332;6.778;2023-02-28T09:39:25;2.53;;;2.28;;
920;SDS011;447;51.332;6.778;2023-02-28T09:41:52;4.18;;;2.83;;
920;SDS011;447;51.332;6.778;2023-02-28T09:44:22;3.45;;;2.50;;
920;SDS011;447;51.332;6.778;2023-02-28T09:49:41;3.55;;;2.90;;
920;SDS011;447;51.332;6.778;2023-02-28T09:52:30;4.50;;;3.25;;
920;SDS011;447;51.332;6.778;2023-02-28T09:55:18;3.15;;;2.78;;
920;SDS011;447;51.332;6.778;2023-02-28T09:57:47;3.53;;;2.63;;
920;SDS011;447;51.332;6.778;2023-02-28T10:05:37;3.63;;;2.50;;
920;SDS011;447;51.332;6.778;2023-02-28T10:08:15;2.80;;;2.42;;
920;SDS011;447;51.332;6.778;2023-02-28T10:10:55;3.63;;;2.90;;
920;SDS011;447;51.332;6.778;2023-02-28T10:13:32;2.70;;;2.50;;
920;SDS011;447;51.332;6.778;2023-02-28T10:16:01;3.50;;;2.60;;
920;SDS011;447;51.332;6.778;2023-02-28T10:18:41;3.50;;;3.20;;
920;SDS011;447;51.332;6.778;2023-02-28T10:21:15;3.45;;;2.60;;
920;SDS011;447;51.332;6.778;2023-02-28T10:23:56;3.97;;;2.88;;
920;SDS011;447;51.332;6.778;2023-02-28T10:26:30;2.83;;;2.38;;
920;SDS011;447;51.332;6.778;2023-02-28T10:28:58;3.65;;;3.03;;
920;SDS011;447;51.332;6.778;2023-02-28T10:31:24;3.40;;;2.83;;
920;SDS011;447;51.332;6.778;2023-02-28T10:33:50;2.60;;;2.40;;
920;SDS011;447;51.332;6.778;2023-02-28T10:36:18;5.07;;;3.10;;
920;SDS011;447;51.332;6.778;2023-02-28T10:38:48;2.45;;;2.25;;
920;SDS011;447;51.332;6.778;2023-02-28T10:41:31;3.80;;;2.70;;
920;SDS011;447;51.332;6.778;2023-02-28T10:44:15;2.42;;;1.90;;
920;SDS011;447;51.332;6.778;2023-02-28T10:46:50;3.17;;;2.33;;
920;SDS011;447;51.332;6.778;2023-02-28T10:49:20;2.97;;;2.20;;
920;SDS011;447;51.332;6.778;2023-02-28T10:51:55;2.58;;;2.38;;
920;SDS011;447;51.332;6.778;2023-02-28T10:54:35;2.60;;;2.40;;
920;SDS011;447;51.332;6.778;2023-02-28T10:57:19;2.78;;;2.20;;
920;SDS011;447;51.332;6.778;2023-02-28T11:00:05;5.90;;;2.58;;
920;SDS011;447;51.332;6.778;2023-02-28T11:02:41;2.45;;;2.25;;
920;SDS011;447;51.332;6.778;2023-02-28T11:05:31;2.85;;;2.35;;
920;SDS011;447;51.332;6.778;2023-02-28T11:08:03;3.22;;;2.58;;
920;SDS011;447;51.332;6.778;2023-02-28T11:10:46;4.35;;;2.22;;
920;SDS011;447;51.332;6.778;2023-02-28T11:13:21;3.13;;;2.40;;
920;SDS011;447;51.332;6.778;2023-02-28T11:15:55;2.10;;;1.90;;
920;SDS011;447;51.332;6.778;2023-02-28T11:20:55;2.65;;;2.20;;
920;SDS011;447;51.332;6.778;2023-02-28T11:23:28;3.65;;;2.35;;
920;SDS011;447;51.332;6.778;2023-02-28T11:26:00;3.25;;;2.00;;
920;SDS011;447;51.332;6.778;2023-02-28T11:36:25;2.10;;;1.90;;
920;SDS011;447;51.332;6.778;2023-02-28T11:38:56;3.30;;;2.00;;
920;SDS011;447;51.332;6.778;2023-02-28T11:41:49;2.88;;;2.20;;
920;SDS011;447;51.332;6.778;2023-02-28T11:48:01;2.97;;;1.95;;
920;SDS011;447;51.332;6.778;2023-02-28T12:04:10;3.00;;;1.92;;
920;SDS011;447;51.332;6.778;2023-02-28T12:06:56;3.13;;;2.08;;
920;SDS011;447;51.332;6.778;2023-02-28T12:20:32;2.25;;;2.05;;
920;SDS011;447;51.332;6.778;2023-02-28T12:28:44;3.53;;;2.30;;
920;SDS011;447;51.332;6.778;2023-02-28T12:31:26;2.08;;;1.88;;
920;SDS011;447;51.332;6.778;2023-02-28T12:33:58;2.75;;;2.40;;
920;SDS011;447;51.332;6.778;2023-02-28T12:36:28;2.33;;;2.05;;
920;SDS011;447;51.332;6.778;2023-02-28T12:41:27;3.10;;;2.00;;
920;SDS011;447;51.332;6.778;2023-02-28T12:44:09;5.43;;;2.15;;
920;SDS011;447;51.332;6.778;2023-02-28T12:46:41;3.10;;;2.25;;
920;SDS011;447;51.332;6.778;2023-02-28T12:52:06;3.00;;;2.33;;
920;SDS011;447;51.332;6.778;2023-02-28T12:54:40;2.30;;;2.10;;
920;SDS011;447;51.332;6.778;2023-02-28T13:00:16;3.17;;;1.92;;
920;SDS011;447;51.332;6.778;2023-02-28T13:02:51;2.63;;;2.35;;
920;SDS011;447;51.332;6.778;2023-02-28T13:05:46;2.40;;;2.20;;
920;SDS011;447;51.332;6.778;2023-02-28T13:11:23;2.88;;;2.50;;
920;SDS011;447;51.332;6.778;2023-02-28T13:13:58;5.50;;;2.80;;
920;SDS011;447;51.332;6.778;2023-02-28T13:16:48;3.53;;;2.95;;
920;SDS011;447;51.332;6.778;2023-02-28T13:19:17;2.25;;;2.05;;
920;SDS011;447;51.332;6.778;2023-02-28T13:21:45;2.75;;;2.35;;
920;SDS011;447;51.332;6.778;2023-02-28T13:24:36;2.70;;;2.20;;
920;SDS011;447;51.332;6.778;2023-02-28T13:29:43;3.63;;;2.40;;
920;SDS011;447;51.332;6.778;2023-02-28T13:50:18;3.65;;;2.40;;
920;SDS011;447;51.332;6.778;2023-02-28T14:01:40;2.30;;;2.10;;
920;SDS011;447;51.332;6.778;2023-02-28T14:07:30;2.67;;;2.47;;
920;SDS011;447;51.332;6.778;2023-02-28T14:10:08;3.72;;;3.00;;
920;SDS011;447;51.332;6.778;2023-02-28T14:17:58;3.15;;;2.55;;
920;SDS011;447;51.332;6.778;2023-02-28T14:20:27;2.88;;;2.67;;
920;SDS011;447;51.332;6.778;2023-02-28T14:23:02;3.88;;;2.22;;
920;SDS011;447;51.332;6.778;2023-02-28T14:37:20;3.58;;;2.63;;
920;SDS011;447;51.332;6.778;2023-02-28T14:39:53;3.10;;;2.75;;
920;SDS011;447;51.332;6.778;2023-02-28T14:42:28;3.03;;;2.72;;
920;SDS011;447;51.332;6.778;2023-02-28T14:44:54;3.20;;;2.90;;
920;SDS011;447;51.332;6.778;2023-02-28T14:47:21;3.65;;;2.80;;
920;SDS011;447;51.332;6.778;2023-02-28T14:49:54;3.28;;;2.97;;
920;SDS011;447;51.332;6.778;2023-02-28T14:52:22;3.58;;;3.15;;
920;SDS011;447;51.332;6.778;2023-02-28T14:54:53;4.43;;;2.85;;
920;SDS011;447;51.332;6.778;2023-02-28T15:02:47;3.85;;;2.95;;
920;SDS011;447;51.332;6.778;2023-02-28T15:07:42;3.75;;;3.25;;
920;SDS011;447;51.332;6.778;2023-02-28T15:10:30;3.40;;;3.10;;
920;SDS011;447;51.332;6.778;2023-02-28T15:12:59;5.07;;;3.90;;
920;SDS011;447;51.332;6.778;2023-02-28T15:20:48;3.58;;;3.38;;
920;SDS011;447;51.332;6.778;2023-02-28T15:23:19;4.10;;;3.20;;
920;SDS011;447;51.332;6.778;2023-02-28T15:25:48;4.25;;;3.50;;
920;SDS011;447;51.332;6.778;2023-02-28T15:28:19;3.38;;;3.08;;
920;SDS011;447;51.332;6.778;2023-02-28T15:30:59;4.75;;;3.38;;
920;SDS011;447;51.332;6.778;2023-02-28T15:33:29;3.55;;;3.25;;
920;SDS011;447;51.332;6.778;2023-02-28T15:36:03;3.55;;;3.22;;
920;SDS011;447;51.332;6.778;2023-02-28T15:38:39;3.20;;;2.90;;
920;SDS011;447;51.332;6.778;2023-02-28T15:41:21;3.63;;;3.33;;
920;SDS011;447;51.332;6.778;2023-02-28T15:49:30;4.00;;;3.00;;
920;SDS011;447;51.332;6.778;2023-02-28T15:52:21;4.13;;;2.92;;
920;SDS011;447;51.332;6.778;2023-02-28T15:57:47;3.83;;;3.42;;
920;SDS011;447;51.332;6.778;2023-02-28T16:00:19;4.90;;;4.00;;
920;SDS011;447;51.332;6.778;2023-02-28T16:02:47;4.25;;;2.92;;
920;SDS011;447;51.332;6.778;2023-02-28T16:05:28;3.58;;;3.28;;
920;SDS011;447;51.332;6.778;2023-02-28T16:08:00;4.78;;;3.60;;
920;SDS011;447;51.332;6.778;2023-02-28T16:10:36;4.05;;;3.65;;
920;SDS011;447;51.332;6.778;2023-02-28T16:13:02;6.93;;;3.47;;
920;SDS011;447;51.332;6.778;2023-02-28T16:15:29;3.45;;;3.15;;
920;SDS011;447;51.332;6.778;2023-02-28T16:18:00;5.43;;;3.30;;
920;SDS011;447;51.332;6.778;2023-02-28T16:20:27;3.53;;;3.23;;
920;SDS011;447;51.332;6.778;2023-02-28T16:22:55;3.38;;;3.08;;
920;SDS011;447;51.332;6.778;2023-02-28T16:25:33;3.75;;;3.40;;
920;SDS011;447;51.332;6.778;2023-02-28T16:28:04;3.80;;;3.50;;
920;SDS011;447;51.332;6.778;2023-02-28T16:30:40;3.97;;;3.50;;
920;SDS011;447;51.332;6.778;2023-02-28T16:33:08;3.78;;;3.47;;
920;SDS011;447;51.332;6.778;2023-02-28T16:35:34;3.57;;;3.20;;
920;SDS011;447;51.332;6.778;2023-02-28T16:38:05;4.50;;;4.00;;
920;SDS011;447;51.332;6.778;2023-02-28T16:40:35;3.97;;;3.67;;
920;SDS011;447;51.332;6.778;2023-02-28T16:43:04;4.30;;;3.75;;
920;SDS011;447;51.332;6.778;2023-02-28T16:45:44;5.55;;;4.38;;
920;SDS011;447;51.332;6.778;2023-02-28T16:48:13;3.63;;;3.33;;
920;SDS011;447;51.332;6.778;2023-02-28T16:50:43;5.28;;;3.45;;
920;SDS011;447;51.332;6.778;2023-02-28T16:53:14;5.82;;;3.90;;
920;SDS011;447;51.332;6.778;2023-02-28T16:55:40;4.45;;;3.42;;
920;SDS011;447;51.332;6.778;2023-02-28T16:58:11;4.50;;;3.83;;
920;SDS011;447;51.332;6.778;2023-02-28T17:00:42;3.90;;;3.60;;
920;SDS011;447;51.332;6.778;2023-02-28T17:03:12;5.38;;;4.55;;
920;SDS011;447;51.332;6.778;2023-02-28T17:05:52;3.92;;;3.63;;
920;SDS011;447;51.332;6.778;2023-02-28T17:08:21;4.22;;;3.83;;
920;SDS011;447;51.332;6.778;2023-02-28T17:10:47;3.90;;;3.60;;
920;SDS011;447;51.332;6.778;2023-02-28T17:13:15;4.70;;;3.80;;
920;SDS011;447;51.332;6.778;2023-02-28T17:15:45;3.85;;;3.45;;
920;SDS011;447;51.332;6.778;2023-02-28T17:18:15;4.55;;;3.85;;
920;SDS011;447;51.332;6.778;2023-02-28T17:20:46;5.22;;;3.42;;
920;SDS011;447;51.332;6.778;2023-02-28T17:23:17;4.30;;;3.63;;
920;SDS011;447;51.332;6.778;2023-02-28T17:25:48;3.75;;;3.45;;
920;SDS011;447;51.332;6.778;2023-02-28T17:28:21;4.30;;;3.92;;
920;SDS011;447;51.332;6.778;2023-02-28T17:30:49;3.83;;;3.53;;
920;SDS011;447;51.332;6.778;2023-02-28T17:33:23;4.50;;;3.58;;
920;SDS011;447;51.332;6.778;2023-02-28T17:35:51;5.82;;;3.70;;
920;SDS011;447;51.332;6.778;2023-02-28T17:38:19;4.47;;;3.38;;
920;SDS011;447;51.332;6.778;2023-02-28T17:40:48;3.33;;;3.03;;
920;SDS011;447;51.332;6.778;2023-02-28T17:43:26;4.18;;;3.60;;
920;SDS011;447;51.332;6.778;2023-02-28T17:45:54;3.72;;;3.20;;
920;SDS011;447;51.332;6.778;2023-02-28T17:48:21;5.35;;;3.78;;
920;SDS011;447;51.332;6.778;2023-02-28T17:50:47;4.40;;;3.35;;
920;SDS011;447;51.332;6.778;2023-02-28T17:53:16;3.95;;;3.50;;
920;SDS011;447;51.332;6.778;2023-02-28T17:55:44;7.13;;;3.50;;
920;SDS011;447;51.332;6.778;2023-02-28T17:58:13;5.22;;;3.63;;
920;SDS011;447;51.332;6.778;2023-02-28T18:00:39;3.78;;;3.38;;
920;SDS011;447;51.332;6.778;2023-02-28T18:03:07;5.20;;;3.75;;
920;SDS011;447;51.332;6.778;2023-02-28T18:05:34;4.45;;;3.50;;
920;SDS011;447;51.332;6.778;2023-02-28T18:08:02;3.33;;;3.03;;
920;SDS011;447;51.332;6.778;2023-02-28T18:10:28;4.30;;;3.55;;
920;SDS011;447;51.332;6.778;2023-02-28T18:12:58;4.30;;;3.67;;
920;SDS011;447;51.332;6.778;2023-02-28T18:15:24;5.97;;;3.70;;
920;SDS011;447;51.332;6.778;2023-02-28T18:17:51;4.05;;;2.92;;
920;SDS011;447;51.332;6.778;2023-02-28T18:20:17;3.67;;;3.38;;
920;SDS011;447;51.332;6.778;2023-02-28T18:22:49;4.13;;;3.38;;
920;SDS011;447;51.332;6.778;2023-02-28T18:25:17;4.40;;;3.42;;
920;SDS011;447;51.332;6.778;2023-02-28T18:27:44;4.05;;;3.50;;
920;SDS011;447;51.332;6.778;2023-02-28T18:30:30;4.43;;;3.25;;
920;SDS011;447;51.332;6.778;2023-02-28T18:32:58;4.60;;;3.58;;
920;SDS011;447;51.332;6.778;2023-02-28T18:35:28;4.13;;;3.72;;
920;SDS011;447;51.332;6.778;2023-02-28T18:40:52;4.60;;;4.20;;
920;SDS011;447;51.332;6.778;2023-02-28T18:43:26;4.60;;;3.67;;
920;SDS011;447;51.332;6.778;2023-02-28T18:45:53;4.30;;;3.45;;
920;SDS011;447;51.332;6.778;2023-02-28T18:48:24;4.72;;;3.35;;
920;SDS011;447;51.332;6.778;2023-02-28T18:50:52;3.70;;;3.40;;
920;SDS011;447;51.332;6.778;2023-02-28T18:53:18;4.30;;;3.53;;
920;SDS011;447;51.332;6.778;2023-02-28T18:55:44;5.10;;;3.27;;
920;SDS011;447;51.332;6.778;2023-02-28T18:58:13;3.75;;;3.45;;
920;SDS011;447;51.332;6.778;2023-02-28T19:00:39;8.80;;;3.40;;
920;SDS011;447;51.332;6.778;2023-02-28T19:03:08;4.30;;;3.70;;
920;SDS011;447;51.332;6.778;2023-02-28T19:05:39;4.72;;;3.25;;
920;SDS011;447;51.332;6.778;2023-02-28T19:08:05;5.37;;;3.60;;
920;SDS011;447;51.332;6.778;2023-02-28T19:10:31;3.78;;;3.30;;
920;SDS011;447;51.332;6.778;2023-02-28T19:12:58;5.72;;;3.90;;
920;SDS011;447;51.332;6.778;2023-02-28T19:15:23;4.82;;;3.50;;
920;SDS011;447;51.332;6.778;2023-02-28T19:17:49;3.43;;;3.13;;